sensor_id;sensor_type;location;lat;lon;timestamp;P1;durP1;ratioP1;P2;durP2;ratioP2
73100;SDS011;61288;53.446;-2.266;2023-08-24T00:01:35;12.45;;;4.45;;
73100;SDS011;61288;53.446;-2.266;2023-08-24T00:04:00;11.15;;;4.55;;
73100;SDS011;61288;53.446;-2.266;2023-08-24T00:06:26;12.38;;;4.43;;
73100;SDS011;61288;53.446;-2.266;2023-08-24T00:08:52;10.73;;;3.78;;
73100;SDS011;61288;53.446;-2.266;2023-08-24T00:11:18;12.90;;;4.50;;
73100;SDS011;61288;53.446;-2.266;2023-08-24T00:13:43;11.65;;;4.72;;
73100;SDS011;61288;53.446;-2.266;2023-08-24T00:16:14;10.20;;;4.10;;
73100;SDS011;61288;53.446;-2.266;2023-08-24T00:18:40;11.77;;;4.00;;
73100;SDS011;61288;53.446;-2.266;2023-08-24T00:21:06;10.85;;;3.85;;
73100;SDS011;61288;53.446;-2.266;2023-08-24T00:23:32;10.82;;;4.10;;
73100;SDS011;61288;53.446;-2.266;2023-08-24T00:25:58;9.77;;;4.10;;
73100;SDS011;61288;53.446;-2.266;2023-08-24T00:28:25;10.60;;;4.15;;
73100;SDS011;61288;53.446;-2.266;2023-08-24T00:30:54;9.93;;;3.50;;
73100;SDS011;61288;53.446;-2.266;2023-08-24T00:33:20;12.43;;;3.70;;
73100;SDS011;61288;53.446;-2.266;2023-08-24T00:35:45;9.85;;;3.25;;
73100;SDS011;61288;53.446;-2.266;2023-08-24T00:38:10;11.05;;;3.47;;
73100;SDS011;61288;53.446;-2.266;2023-08-24T00:40:36;10.27;;;3.70;;
73100;SDS011;61288;53.446;-2.266;2023-08-24T00:43:01;8.95;;;3.38;;
73100;SDS011;61288;53.446;-2.266;2023-08-24T00:45:27;10.65;;;3.72;;
73100;SDS011;61288;53.446;-2.266;2023-08-24T00:47:52;11.35;;;3.50;;
73100;SDS011;61288;53.446;-2.266;2023-08-24T00:50:18;13.02;;;4.22;;
73100;SDS011;61288;53.446;-2.266;2023-08-24T00:52:45;9.80;;;3.58;;
73100;SDS011;61288;53.446;-2.266;2023-08-24T00:55:12;12.70;;;4.15;;
73100;SDS011;61288;53.446;-2.266;2023-08-24T00:57:38;9.65;;;3.60;;
73100;SDS011;61288;53.446;-2.266;2023-08-24T01:00:07;12.25;;;3.80;;
73100;SDS011;61288;53.446;-2.266;2023-08-24T01:02:36;11.50;;;3.85;;
73100;SDS011;61288;53.446;-2.266;2023-08-24T01:07:34;11.50;;;3.88;;
73100;SDS011;61288;53.446;-2.266;2023-08-24T01:10:02;11.30;;;3.88;;
73100;SDS011;61288;53.446;-2.266;2023-08-24T01:12:32;13.20;;;4.20;;
73100;SDS011;61288;53.446;-2.266;2023-08-24T01:17:43;9.65;;;3.50;;
73100;SDS011;61288;53.446;-2.266;2023-08-24T01:20:10;9.65;;;3.67;;
73100;SDS011;61288;53.446;-2.266;2023-08-24T01:27:35;11.05;;;3.92;;
73100;SDS011;61288;53.446;-2.266;2023-08-24T01:30:03;9.68;;;3.28;;
73100;SDS011;61288;53.446;-2.266;2023-08-24T01:32:30;10.30;;;3.33;;
73100;SDS011;61288;53.446;-2.266;2023-08-24T01:34:57;11.23;;;3.53;;
73100;SDS011;61288;53.446;-2.266;2023-08-24T01:37:24;9.98;;;3.50;;
73100;SDS011;61288;53.446;-2.266;2023-08-24T01:43:01;10.43;;;3.60;;
73100;SDS011;61288;53.446;-2.266;2023-08-24T01:45:29;10.85;;;3.33;;
73100;SDS011;61288;53.446;-2.266;2023-08-24T01:47:56;9.98;;;3.38;;
73100;SDS011;61288;53.446;-2.266;2023-08-24T01:50:24;9.40;;;3.28;;
73100;SDS011;61288;53.446;-2.266;2023-08-24T01:52:50;11.38;;;3.42;;
73100;SDS011;61288;53.446;-2.266;2023-08-24T01:55:19;10.27;;;3.20;;
73100;SDS011;61288;53.446;-2.266;2023-08-24T01:57:45;9.40;;;2.95;;
73100;SDS011;61288;53.446;-2.266;2023-08-24T02:00:11;9.88;;;4.03;;
73100;SDS011;61288;53.446;-2.266;2023-08-24T02:02:37;12.80;;;3.58;;
73100;SDS011;61288;53.446;-2.266;2023-08-24T02:05:03;8.13;;;3.05;;
73100;SDS011;61288;53.446;-2.266;2023-08-24T02:07:29;8.95;;;3.20;;
73100;SDS011;61288;53.446;-2.266;2023-08-24T02:09:54;10.05;;;3.10;;
73100;SDS011;61288;53.446;-2.266;2023-08-24T02:12:20;9.63;;;3.03;;
73100;SDS011;61288;53.446;-2.266;2023-08-24T02:14:45;8.27;;;2.92;;
73100;SDS011;61288;53.446;-2.266;2023-08-24T02:17:11;8.65;;;3.08;;
73100;SDS011;61288;53.446;-2.266;2023-08-24T02:19:36;10.07;;;2.90;;
73100;SDS011;61288;53.446;-2.266;2023-08-24T02:22:03;10.32;;;3.45;;
73100;SDS011;61288;53.446;-2.266;2023-08-24T02:24:29;8.73;;;3.05;;
73100;SDS011;61288;53.446;-2.266;2023-08-24T02:26:55;9.23;;;2.97;;
73100;SDS011;61288;53.446;-2.266;2023-08-24T02:29:20;10.85;;;3.03;;
73100;SDS011;61288;53.446;-2.266;2023-08-24T02:31:48;10.57;;;3.20;;
73100;SDS011;61288;53.446;-2.266;2023-08-24T02:34:14;8.50;;;3.00;;
73100;SDS011;61288;53.446;-2.266;2023-08-24T02:36:40;10.90;;;3.10;;
73100;SDS011;61288;53.446;-2.266;2023-08-24T02:39:05;8.13;;;3.00;;
73100;SDS011;61288;53.446;-2.266;2023-08-24T02:41:31;9.65;;;3.33;;
73100;SDS011;61288;53.446;-2.266;2023-08-24T02:43:56;7.05;;;2.90;;
73100;SDS011;61288;53.446;-2.266;2023-08-24T02:46:22;11.27;;;3.47;;
73100;SDS011;61288;53.446;-2.266;2023-08-24T02:48:47;12.32;;;3.80;;
73100;SDS011;61288;53.446;-2.266;2023-08-24T02:51:13;8.63;;;3.33;;
73100;SDS011;61288;53.446;-2.266;2023-08-24T02:53:38;10.23;;;3.05;;
73100;SDS011;61288;53.446;-2.266;2023-08-24T02:56:04;9.65;;;3.33;;
73100;SDS011;61288;53.446;-2.266;2023-08-24T02:58:30;9.52;;;3.15;;
73100;SDS011;61288;53.446;-2.266;2023-08-24T03:00:56;8.45;;;3.42;;
73100;SDS011;61288;53.446;-2.266;2023-08-24T03:03:23;9.07;;;3.50;;
73100;SDS011;61288;53.446;-2.266;2023-08-24T03:05:56;11.20;;;3.38;;
73100;SDS011;61288;53.446;-2.266;2023-08-24T03:08:25;10.13;;;3.05;;
73100;SDS011;61288;53.446;-2.266;2023-08-24T03:10:51;10.27;;;3.40;;
73100;SDS011;61288;53.446;-2.266;2023-08-24T03:13:17;9.63;;;3.42;;
73100;SDS011;61288;53.446;-2.266;2023-08-24T03:15:42;10.50;;;3.20;;
73100;SDS011;61288;53.446;-2.266;2023-08-24T03:18:10;10.60;;;3.13;;
73100;SDS011;61288;53.446;-2.266;2023-08-24T03:20:37;9.05;;;3.08;;
73100;SDS011;61288;53.446;-2.266;2023-08-24T03:23:02;8.88;;;3.25;;
73100;SDS011;61288;53.446;-2.266;2023-08-24T03:25:31;9.25;;;3.08;;
73100;SDS011;61288;53.446;-2.266;2023-08-24T03:28:01;9.32;;;3.13;;
73100;SDS011;61288;53.446;-2.266;2023-08-24T03:30:27;9.30;;;3.20;;
73100;SDS011;61288;53.446;-2.266;2023-08-24T03:32:52;8.80;;;2.75;;
73100;SDS011;61288;53.446;-2.266;2023-08-24T03:35:22;9.40;;;3.10;;
73100;SDS011;61288;53.446;-2.266;2023-08-24T03:37:47;11.07;;;2.85;;
73100;SDS011;61288;53.446;-2.266;2023-08-24T03:40:13;11.75;;;3.10;;
73100;SDS011;61288;53.446;-2.266;2023-08-24T03:42:39;10.40;;;3.13;;
73100;SDS011;61288;53.446;-2.266;2023-08-24T03:45:05;10.60;;;3.42;;
73100;SDS011;61288;53.446;-2.266;2023-08-24T03:47:31;7.80;;;2.83;;
73100;SDS011;61288;53.446;-2.266;2023-08-24T03:49:56;10.07;;;3.13;;
73100;SDS011;61288;53.446;-2.266;2023-08-24T03:52:22;10.80;;;3.53;;
73100;SDS011;61288;53.446;-2.266;2023-08-24T03:54:47;9.77;;;3.33;;
73100;SDS011;61288;53.446;-2.266;2023-08-24T03:57:13;10.07;;;3.00;;
73100;SDS011;61288;53.446;-2.266;2023-08-24T03:59:39;8.88;;;3.42;;
73100;SDS011;61288;53.446;-2.266;2023-08-24T04:02:05;10.02;;;3.75;;
73100;SDS011;61288;53.446;-2.266;2023-08-24T04:04:31;11.88;;;3.28;;
73100;SDS011;61288;53.446;-2.266;2023-08-24T04:06:56;9.35;;;3.10;;
73100;SDS011;61288;53.446;-2.266;2023-08-24T04:09:22;8.48;;;3.08;;
73100;SDS011;61288;53.446;-2.266;2023-08-24T04:11:47;8.65;;;2.95;;
73100;SDS011;61288;53.446;-2.266;2023-08-24T04:14:13;8.00;;;2.75;;
73100;SDS011;61288;53.446;-2.266;2023-08-24T04:16:39;8.15;;;2.60;;
73100;SDS011;61288;53.446;-2.266;2023-08-24T04:19:04;10.88;;;3.17;;
73100;SDS011;61288;53.446;-2.266;2023-08-24T04:21:30;7.57;;;2.42;;
73100;SDS011;61288;53.446;-2.266;2023-08-24T04:23:55;7.53;;;2.78;;
73100;SDS011;61288;53.446;-2.266;2023-08-24T04:26:21;7.82;;;2.30;;
73100;SDS011;61288;53.446;-2.266;2023-08-24T04:28:46;7.50;;;2.28;;
73100;SDS011;61288;53.446;-2.266;2023-08-24T04:31:12;7.88;;;2.45;;
73100;SDS011;61288;53.446;-2.266;2023-08-24T04:33:38;9.70;;;2.60;;
73100;SDS011;61288;53.446;-2.266;2023-08-24T04:36:03;7.97;;;2.42;;
73100;SDS011;61288;53.446;-2.266;2023-08-24T04:38:29;6.55;;;2.50;;
73100;SDS011;61288;53.446;-2.266;2023-08-24T04:40:55;7.47;;;2.45;;
73100;SDS011;61288;53.446;-2.266;2023-08-24T04:43:22;7.50;;;2.13;;
73100;SDS011;61288;53.446;-2.266;2023-08-24T04:45:48;6.10;;;2.30;;
73100;SDS011;61288;53.446;-2.266;2023-08-24T04:48:20;6.43;;;2.30;;
73100;SDS011;61288;53.446;-2.266;2023-08-24T04:50:46;8.85;;;2.50;;
73100;SDS011;61288;53.446;-2.266;2023-08-24T04:53:15;7.32;;;2.38;;
73100;SDS011;61288;53.446;-2.266;2023-08-24T04:55:42;6.82;;;2.50;;
73100;SDS011;61288;53.446;-2.266;2023-08-24T04:58:08;6.88;;;2.22;;
73100;SDS011;61288;53.446;-2.266;2023-08-24T05:00:39;6.38;;;2.38;;
73100;SDS011;61288;53.446;-2.266;2023-08-24T05:03:05;8.48;;;2.70;;
73100;SDS011;61288;53.446;-2.266;2023-08-24T05:05:32;6.03;;;2.10;;
73100;SDS011;61288;53.446;-2.266;2023-08-24T05:07:59;6.63;;;2.22;;
73100;SDS011;61288;53.446;-2.266;2023-08-24T05:10:26;6.95;;;2.50;;
73100;SDS011;61288;53.446;-2.266;2023-08-24T05:12:55;8.80;;;2.40;;
73100;SDS011;61288;53.446;-2.266;2023-08-24T05:15:21;8.63;;;2.10;;
73100;SDS011;61288;53.446;-2.266;2023-08-24T05:17:47;7.47;;;2.45;;
73100;SDS011;61288;53.446;-2.266;2023-08-24T05:20:13;8.00;;;2.50;;
73100;SDS011;61288;53.446;-2.266;2023-08-24T05:22:38;7.88;;;2.53;;
73100;SDS011;61288;53.446;-2.266;2023-08-24T05:25:05;8.00;;;2.42;;
73100;SDS011;61288;53.446;-2.266;2023-08-24T05:27:31;9.63;;;2.22;;
73100;SDS011;61288;53.446;-2.266;2023-08-24T05:29:57;7.47;;;2.25;;
73100;SDS011;61288;53.446;-2.266;2023-08-24T05:32:23;7.85;;;2.05;;
73100;SDS011;61288;53.446;-2.266;2023-08-24T05:34:48;6.57;;;2.30;;
73100;SDS011;61288;53.446;-2.266;2023-08-24T05:37:14;7.18;;;2.22;;
73100;SDS011;61288;53.446;-2.266;2023-08-24T05:39:40;6.03;;;2.22;;
73100;SDS011;61288;53.446;-2.266;2023-08-24T05:42:06;9.68;;;2.38;;
73100;SDS011;61288;53.446;-2.266;2023-08-24T05:44:32;6.70;;;2.25;;
73100;SDS011;61288;53.446;-2.266;2023-08-24T05:46:58;7.25;;;2.25;;
73100;SDS011;61288;53.446;-2.266;2023-08-24T05:49:23;8.52;;;2.38;;
73100;SDS011;61288;53.446;-2.266;2023-08-24T05:51:50;8.27;;;2.25;;
73100;SDS011;61288;53.446;-2.266;2023-08-24T05:54:16;8.70;;;2.35;;
73100;SDS011;61288;53.446;-2.266;2023-08-24T05:56:43;9.75;;;2.65;;
73100;SDS011;61288;53.446;-2.266;2023-08-24T05:59:10;5.90;;;2.45;;
73100;SDS011;61288;53.446;-2.266;2023-08-24T06:01:35;7.72;;;2.35;;
73100;SDS011;61288;53.446;-2.266;2023-08-24T06:04:04;9.43;;;2.50;;
73100;SDS011;61288;53.446;-2.266;2023-08-24T06:06:33;8.18;;;2.47;;
73100;SDS011;61288;53.446;-2.266;2023-08-24T06:08:59;7.60;;;2.38;;
73100;SDS011;61288;53.446;-2.266;2023-08-24T06:11:25;8.35;;;2.40;;
73100;SDS011;61288;53.446;-2.266;2023-08-24T06:13:50;6.68;;;2.10;;
73100;SDS011;61288;53.446;-2.266;2023-08-24T06:16:19;5.57;;;2.05;;
73100;SDS011;61288;53.446;-2.266;2023-08-24T06:18:44;9.18;;;2.70;;
73100;SDS011;61288;53.446;-2.266;2023-08-24T06:21:10;7.30;;;2.13;;
73100;SDS011;61288;53.446;-2.266;2023-08-24T06:23:35;6.72;;;2.42;;
73100;SDS011;61288;53.446;-2.266;2023-08-24T06:26:01;9.05;;;2.30;;
73100;SDS011;61288;53.446;-2.266;2023-08-24T06:28:27;11.82;;;2.55;;
73100;SDS011;61288;53.446;-2.266;2023-08-24T06:30:52;8.55;;;2.63;;
73100;SDS011;61288;53.446;-2.266;2023-08-24T06:33:20;7.72;;;2.30;;
73100;SDS011;61288;53.446;-2.266;2023-08-24T06:35:47;7.15;;;2.28;;
73100;SDS011;61288;53.446;-2.266;2023-08-24T06:38:13;7.70;;;2.33;;
73100;SDS011;61288;53.446;-2.266;2023-08-24T06:40:38;8.57;;;2.50;;
73100;SDS011;61288;53.446;-2.266;2023-08-24T06:43:04;7.85;;;2.05;;
73100;SDS011;61288;53.446;-2.266;2023-08-24T06:45:32;6.72;;;2.25;;
73100;SDS011;61288;53.446;-2.266;2023-08-24T06:47:58;7.40;;;2.20;;
73100;SDS011;61288;53.446;-2.266;2023-08-24T06:50:23;6.68;;;2.13;;
73100;SDS011;61288;53.446;-2.266;2023-08-24T06:52:49;6.78;;;2.13;;
73100;SDS011;61288;53.446;-2.266;2023-08-24T06:55:14;5.80;;;2.08;;
73100;SDS011;61288;53.446;-2.266;2023-08-24T06:57:40;6.60;;;2.20;;
73100;SDS011;61288;53.446;-2.266;2023-08-24T07:00:06;6.93;;;2.30;;
73100;SDS011;61288;53.446;-2.266;2023-08-24T07:02:33;6.38;;;2.08;;
73100;SDS011;61288;53.446;-2.266;2023-08-24T07:04:59;7.57;;;2.50;;
73100;SDS011;61288;53.446;-2.266;2023-08-24T07:07:26;7.10;;;2.35;;
73100;SDS011;61288;53.446;-2.266;2023-08-24T07:09:51;8.20;;;2.40;;
73100;SDS011;61288;53.446;-2.266;2023-08-24T07:12:16;6.78;;;2.03;;
73100;SDS011;61288;53.446;-2.266;2023-08-24T07:14:42;6.72;;;2.35;;
73100;SDS011;61288;53.446;-2.266;2023-08-24T07:17:07;7.72;;;2.67;;
73100;SDS011;61288;53.446;-2.266;2023-08-24T07:19:33;8.43;;;2.38;;
73100;SDS011;61288;53.446;-2.266;2023-08-24T07:21:58;7.18;;;2.50;;
73100;SDS011;61288;53.446;-2.266;2023-08-24T07:24:24;6.80;;;2.30;;
73100;SDS011;61288;53.446;-2.266;2023-08-24T07:26:53;7.78;;;2.22;;
73100;SDS011;61288;53.446;-2.266;2023-08-24T07:29:19;7.00;;;2.40;;
73100;SDS011;61288;53.446;-2.266;2023-08-24T07:31:49;9.43;;;2.40;;
73100;SDS011;61288;53.446;-2.266;2023-08-24T07:34:15;7.00;;;2.28;;
73100;SDS011;61288;53.446;-2.266;2023-08-24T07:36:41;9.23;;;2.70;;
73100;SDS011;61288;53.446;-2.266;2023-08-24T07:39:07;10.35;;;2.70;;
73100;SDS011;61288;53.446;-2.266;2023-08-24T07:41:33;7.65;;;2.40;;
73100;SDS011;61288;53.446;-2.266;2023-08-24T07:43:58;7.07;;;2.47;;
73100;SDS011;61288;53.446;-2.266;2023-08-24T07:46:24;11.93;;;3.00;;
73100;SDS011;61288;53.446;-2.266;2023-08-24T07:48:50;9.38;;;3.17;;
73100;SDS011;61288;53.446;-2.266;2023-08-24T07:51:15;9.93;;;3.00;;
73100;SDS011;61288;53.446;-2.266;2023-08-24T07:53:41;9.65;;;2.88;;
73100;SDS011;61288;53.446;-2.266;2023-08-24T07:56:06;7.18;;;2.35;;
73100;SDS011;61288;53.446;-2.266;2023-08-24T07:58:32;9.48;;;2.42;;
73100;SDS011;61288;53.446;-2.266;2023-08-24T08:00:59;9.30;;;2.88;;
73100;SDS011;61288;53.446;-2.266;2023-08-24T08:03:24;8.23;;;2.95;;
73100;SDS011;61288;53.446;-2.266;2023-08-24T08:05:50;9.38;;;3.55;;
73100;SDS011;61288;53.446;-2.266;2023-08-24T08:08:15;9.13;;;3.35;;
73100;SDS011;61288;53.446;-2.266;2023-08-24T08:10:41;9.23;;;3.50;;
73100;SDS011;61288;53.446;-2.266;2023-08-24T08:13:07;9.10;;;3.22;;
73100;SDS011;61288;53.446;-2.266;2023-08-24T08:15:35;9.02;;;3.00;;
73100;SDS011;61288;53.446;-2.266;2023-08-24T08:18:03;5.82;;;2.40;;
73100;SDS011;61288;53.446;-2.266;2023-08-24T08:20:33;7.57;;;2.80;;
73100;SDS011;61288;53.446;-2.266;2023-08-24T08:22:58;7.10;;;2.70;;
73100;SDS011;61288;53.446;-2.266;2023-08-24T08:25:24;9.45;;;2.47;;
73100;SDS011;61288;53.446;-2.266;2023-08-24T08:27:50;7.00;;;2.10;;
73100;SDS011;61288;53.446;-2.266;2023-08-24T08:30:15;4.60;;;1.95;;
73100;SDS011;61288;53.446;-2.266;2023-08-24T08:32:41;5.70;;;1.83;;
73100;SDS011;61288;53.446;-2.266;2023-08-24T08:35:07;5.53;;;1.52;;
73100;SDS011;61288;53.446;-2.266;2023-08-24T08:37:34;3.97;;;1.58;;
73100;SDS011;61288;53.446;-2.266;2023-08-24T08:40:02;7.72;;;2.78;;
73100;SDS011;61288;53.446;-2.266;2023-08-24T08:42:34;4.85;;;1.60;;
73100;SDS011;61288;53.446;-2.266;2023-08-24T08:45:01;4.15;;;1.60;;
73100;SDS011;61288;53.446;-2.266;2023-08-24T08:47:28;5.70;;;1.63;;
73100;SDS011;61288;53.446;-2.266;2023-08-24T08:49:55;3.70;;;1.60;;
73100;SDS011;61288;53.446;-2.266;2023-08-24T08:52:21;3.08;;;1.30;;
73100;SDS011;61288;53.446;-2.266;2023-08-24T08:54:47;4.30;;;1.42;;
73100;SDS011;61288;53.446;-2.266;2023-08-24T08:57:12;5.40;;;1.58;;
73100;SDS011;61288;53.446;-2.266;2023-08-24T08:59:46;3.08;;;1.38;;
73100;SDS011;61288;53.446;-2.266;2023-08-24T09:02:16;4.03;;;1.33;;
73100;SDS011;61288;53.446;-2.266;2023-08-24T09:04:42;4.78;;;1.50;;
73100;SDS011;61288;53.446;-2.266;2023-08-24T09:07:13;3.58;;;1.30;;
73100;SDS011;61288;53.446;-2.266;2023-08-24T09:09:39;3.92;;;1.27;;
73100;SDS011;61288;53.446;-2.266;2023-08-24T09:12:08;2.50;;;1.00;;
73100;SDS011;61288;53.446;-2.266;2023-08-24T09:14:34;2.58;;;1.13;;
73100;SDS011;61288;53.446;-2.266;2023-08-24T09:17:00;3.90;;;1.30;;
73100;SDS011;61288;53.446;-2.266;2023-08-24T09:19:29;2.97;;;1.30;;
73100;SDS011;61288;53.446;-2.266;2023-08-24T09:22:00;6.18;;;1.73;;
73100;SDS011;61288;53.446;-2.266;2023-08-24T09:24:33;4.10;;;1.40;;
73100;SDS011;61288;53.446;-2.266;2023-08-24T09:27:00;4.43;;;1.30;;
73100;SDS011;61288;53.446;-2.266;2023-08-24T09:29:40;4.13;;;1.20;;
73100;SDS011;61288;53.446;-2.266;2023-08-24T09:32:09;5.95;;;1.70;;
73100;SDS011;61288;53.446;-2.266;2023-08-24T09:34:35;3.83;;;1.45;;
73100;SDS011;61288;53.446;-2.266;2023-08-24T09:37:04;3.80;;;1.50;;
73100;SDS011;61288;53.446;-2.266;2023-08-24T09:39:30;5.75;;;1.83;;
73100;SDS011;61288;53.446;-2.266;2023-08-24T09:41:57;4.80;;;1.73;;
73100;SDS011;61288;53.446;-2.266;2023-08-24T09:44:28;4.95;;;2.05;;
73100;SDS011;61288;53.446;-2.266;2023-08-24T09:46:53;5.35;;;2.05;;
73100;SDS011;61288;53.446;-2.266;2023-08-24T09:49:19;6.68;;;1.90;;
73100;SDS011;61288;53.446;-2.266;2023-08-24T09:51:46;5.78;;;1.80;;
73100;SDS011;61288;53.446;-2.266;2023-08-24T09:54:15;5.65;;;1.80;;
73100;SDS011;61288;53.446;-2.266;2023-08-24T09:56:48;4.25;;;1.55;;
73100;SDS011;61288;53.446;-2.266;2023-08-24T09:59:16;5.47;;;2.20;;
73100;SDS011;61288;53.446;-2.266;2023-08-24T10:01:43;4.03;;;1.80;;
73100;SDS011;61288;53.446;-2.266;2023-08-24T10:04:12;5.10;;;1.70;;
73100;SDS011;61288;53.446;-2.266;2023-08-24T10:06:39;4.75;;;2.00;;
73100;SDS011;61288;53.446;-2.266;2023-08-24T10:09:07;6.35;;;2.00;;
73100;SDS011;61288;53.446;-2.266;2023-08-24T10:11:37;6.60;;;1.98;;
73100;SDS011;61288;53.446;-2.266;2023-08-24T10:16:56;5.68;;;2.00;;
73100;SDS011;61288;53.446;-2.266;2023-08-24T10:19:22;6.38;;;2.33;;
73100;SDS011;61288;53.446;-2.266;2023-08-24T10:24:19;7.78;;;3.03;;
73100;SDS011;61288;53.446;-2.266;2023-08-24T10:26:46;11.43;;;3.78;;
73100;SDS011;61288;53.446;-2.266;2023-08-24T10:29:12;11.27;;;3.70;;
73100;SDS011;61288;53.446;-2.266;2023-08-24T10:31:40;10.25;;;4.28;;
73100;SDS011;61288;53.446;-2.266;2023-08-24T10:34:06;10.98;;;3.78;;
73100;SDS011;61288;53.446;-2.266;2023-08-24T10:36:33;10.07;;;3.38;;
73100;SDS011;61288;53.446;-2.266;2023-08-24T10:39:01;10.75;;;3.70;;
73100;SDS011;61288;53.446;-2.266;2023-08-24T10:41:43;11.73;;;3.20;;
73100;SDS011;61288;53.446;-2.266;2023-08-24T10:44:13;10.20;;;3.30;;
73100;SDS011;61288;53.446;-2.266;2023-08-24T10:47:04;9.75;;;2.80;;
73100;SDS011;61288;53.446;-2.266;2023-08-24T10:49:37;9.18;;;3.13;;
73100;SDS011;61288;53.446;-2.266;2023-08-24T10:52:21;13.40;;;3.55;;
73100;SDS011;61288;53.446;-2.266;2023-08-24T10:54:48;12.25;;;3.42;;
73100;SDS011;61288;53.446;-2.266;2023-08-24T10:57:22;8.93;;;3.30;;
73100;SDS011;61288;53.446;-2.266;2023-08-24T11:00:05;10.00;;;3.15;;
73100;SDS011;61288;53.446;-2.266;2023-08-24T11:02:52;9.25;;;3.22;;
73100;SDS011;61288;53.446;-2.266;2023-08-24T11:07:50;9.82;;;2.60;;
73100;SDS011;61288;53.446;-2.266;2023-08-24T11:10:18;7.72;;;3.10;;
73100;SDS011;61288;53.446;-2.266;2023-08-24T11:18:12;5.95;;;2.38;;
73100;SDS011;61288;53.446;-2.266;2023-08-24T11:20:45;8.80;;;2.88;;
73100;SDS011;61288;53.446;-2.266;2023-08-24T11:23:12;8.55;;;2.80;;
73100;SDS011;61288;53.446;-2.266;2023-08-24T11:25:39;8.23;;;2.50;;
73100;SDS011;61288;53.446;-2.266;2023-08-24T11:28:05;7.78;;;2.30;;
73100;SDS011;61288;53.446;-2.266;2023-08-24T11:30:31;7.70;;;2.45;;
73100;SDS011;61288;53.446;-2.266;2023-08-24T11:33:01;9.30;;;2.90;;
73100;SDS011;61288;53.446;-2.266;2023-08-24T11:35:27;9.25;;;2.50;;
73100;SDS011;61288;53.446;-2.266;2023-08-24T11:37:53;8.63;;;2.78;;
73100;SDS011;61288;53.446;-2.266;2023-08-24T11:40:22;7.03;;;2.30;;
73100;SDS011;61288;53.446;-2.266;2023-08-24T11:42:56;12.38;;;2.78;;
73100;SDS011;61288;53.446;-2.266;2023-08-24T11:45:22;11.63;;;3.03;;
73100;SDS011;61288;53.446;-2.266;2023-08-24T11:47:51;8.77;;;2.53;;
73100;SDS011;61288;53.446;-2.266;2023-08-24T11:50:18;11.32;;;2.65;;
73100;SDS011;61288;53.446;-2.266;2023-08-24T11:52:48;7.07;;;2.42;;
73100;SDS011;61288;53.446;-2.266;2023-08-24T11:55:13;8.32;;;2.72;;
73100;SDS011;61288;53.446;-2.266;2023-08-24T11:57:39;6.82;;;2.35;;
73100;SDS011;61288;53.446;-2.266;2023-08-24T12:00:04;8.02;;;2.60;;
73100;SDS011;61288;53.446;-2.266;2023-08-24T12:02:31;7.22;;;2.35;;
73100;SDS011;61288;53.446;-2.266;2023-08-24T12:04:57;9.05;;;2.80;;
73100;SDS011;61288;53.446;-2.266;2023-08-24T12:07:24;9.70;;;2.80;;
73100;SDS011;61288;53.446;-2.266;2023-08-24T12:09:49;7.45;;;2.63;;
73100;SDS011;61288;53.446;-2.266;2023-08-24T12:12:18;10.52;;;2.50;;
73100;SDS011;61288;53.446;-2.266;2023-08-24T12:14:48;11.82;;;2.60;;
73100;SDS011;61288;53.446;-2.266;2023-08-24T12:17:15;6.90;;;2.05;;
73100;SDS011;61288;53.446;-2.266;2023-08-24T12:19:57;8.13;;;2.42;;
73100;SDS011;61288;53.446;-2.266;2023-08-24T12:22:27;8.80;;;2.42;;
73100;SDS011;61288;53.446;-2.266;2023-08-24T12:24:54;12.43;;;3.38;;
73100;SDS011;61288;53.446;-2.266;2023-08-24T12:27:23;6.78;;;2.30;;
73100;SDS011;61288;53.446;-2.266;2023-08-24T12:29:52;6.30;;;2.30;;
73100;SDS011;61288;53.446;-2.266;2023-08-24T12:32:21;9.55;;;2.25;;
73100;SDS011;61288;53.446;-2.266;2023-08-24T12:34:50;6.95;;;2.28;;
73100;SDS011;61288;53.446;-2.266;2023-08-24T12:37:21;8.55;;;2.58;;
73100;SDS011;61288;53.446;-2.266;2023-08-24T12:39:47;9.98;;;2.55;;
73100;SDS011;61288;53.446;-2.266;2023-08-24T12:42:13;10.73;;;2.65;;
73100;SDS011;61288;53.446;-2.266;2023-08-24T12:44:39;8.68;;;2.70;;
73100;SDS011;61288;53.446;-2.266;2023-08-24T12:47:04;7.80;;;2.53;;
73100;SDS011;61288;53.446;-2.266;2023-08-24T12:49:30;8.30;;;2.45;;
73100;SDS011;61288;53.446;-2.266;2023-08-24T12:51:55;6.65;;;2.20;;
73100;SDS011;61288;53.446;-2.266;2023-08-24T12:54:21;8.98;;;2.40;;
73100;SDS011;61288;53.446;-2.266;2023-08-24T12:56:47;8.40;;;2.25;;
73100;SDS011;61288;53.446;-2.266;2023-08-24T12:59:12;9.50;;;1.85;;
73100;SDS011;61288;53.446;-2.266;2023-08-24T13:01:38;6.45;;;1.70;;
73100;SDS011;61288;53.446;-2.266;2023-08-24T13:04:04;6.88;;;2.13;;
73100;SDS011;61288;53.446;-2.266;2023-08-24T13:06:30;6.00;;;1.70;;
73100;SDS011;61288;53.446;-2.266;2023-08-24T13:08:55;9.00;;;2.00;;
73100;SDS011;61288;53.446;-2.266;2023-08-24T13:11:21;5.65;;;1.67;;
73100;SDS011;61288;53.446;-2.266;2023-08-24T13:13:47;5.22;;;1.60;;
73100;SDS011;61288;53.446;-2.266;2023-08-24T13:16:13;5.25;;;1.58;;
73100;SDS011;61288;53.446;-2.266;2023-08-24T13:18:39;10.40;;;1.77;;
73100;SDS011;61288;53.446;-2.266;2023-08-24T13:21:05;5.75;;;1.58;;
73100;SDS011;61288;53.446;-2.266;2023-08-24T13:23:30;8.60;;;1.75;;
73100;SDS011;61288;53.446;-2.266;2023-08-24T13:25:59;6.35;;;1.67;;
73100;SDS011;61288;53.446;-2.266;2023-08-24T13:28:25;4.70;;;1.67;;
73100;SDS011;61288;53.446;-2.266;2023-08-24T13:30:51;4.90;;;1.60;;
73100;SDS011;61288;53.446;-2.266;2023-08-24T13:33:16;7.50;;;1.85;;
73100;SDS011;61288;53.446;-2.266;2023-08-24T13:35:44;8.07;;;1.80;;
73100;SDS011;61288;53.446;-2.266;2023-08-24T13:38:10;5.38;;;1.85;;
73100;SDS011;61288;53.446;-2.266;2023-08-24T13:40:36;5.93;;;1.52;;
73100;SDS011;61288;53.446;-2.266;2023-08-24T13:43:02;9.05;;;1.92;;
73100;SDS011;61288;53.446;-2.266;2023-08-24T13:45:29;7.72;;;2.10;;
73100;SDS011;61288;53.446;-2.266;2023-08-24T13:47:56;6.13;;;1.45;;
73100;SDS011;61288;53.446;-2.266;2023-08-24T13:50:22;5.32;;;1.50;;
73100;SDS011;61288;53.446;-2.266;2023-08-24T13:52:48;4.50;;;1.48;;
73100;SDS011;61288;53.446;-2.266;2023-08-24T13:55:14;5.22;;;1.60;;
73100;SDS011;61288;53.446;-2.266;2023-08-24T13:57:40;8.52;;;2.17;;
73100;SDS011;61288;53.446;-2.266;2023-08-24T14:00:05;7.15;;;1.95;;
73100;SDS011;61288;53.446;-2.266;2023-08-24T14:02:34;5.70;;;1.75;;
73100;SDS011;61288;53.446;-2.266;2023-08-24T14:04:59;4.97;;;1.85;;
73100;SDS011;61288;53.446;-2.266;2023-08-24T14:07:25;4.78;;;1.60;;
73100;SDS011;61288;53.446;-2.266;2023-08-24T14:09:50;7.00;;;1.67;;
73100;SDS011;61288;53.446;-2.266;2023-08-24T14:12:16;4.78;;;1.80;;
73100;SDS011;61288;53.446;-2.266;2023-08-24T14:14:41;7.90;;;1.90;;
73100;SDS011;61288;53.446;-2.266;2023-08-24T14:17:07;9.05;;;2.00;;
73100;SDS011;61288;53.446;-2.266;2023-08-24T14:19:32;5.65;;;1.80;;
73100;SDS011;61288;53.446;-2.266;2023-08-24T14:21:57;6.65;;;1.70;;
73100;SDS011;61288;53.446;-2.266;2023-08-24T14:24:23;5.20;;;1.63;;
73100;SDS011;61288;53.446;-2.266;2023-08-24T14:26:50;7.97;;;1.90;;
73100;SDS011;61288;53.446;-2.266;2023-08-24T14:29:15;4.93;;;1.67;;
73100;SDS011;61288;53.446;-2.266;2023-08-24T14:31:40;7.32;;;1.70;;
73100;SDS011;61288;53.446;-2.266;2023-08-24T14:34:06;5.35;;;1.40;;
73100;SDS011;61288;53.446;-2.266;2023-08-24T14:36:31;6.22;;;1.60;;
73100;SDS011;61288;53.446;-2.266;2023-08-24T14:38:57;4.15;;;1.50;;
73100;SDS011;61288;53.446;-2.266;2023-08-24T14:41:23;4.95;;;1.38;;
73100;SDS011;61288;53.446;-2.266;2023-08-24T14:43:48;6.70;;;1.40;;
73100;SDS011;61288;53.446;-2.266;2023-08-24T14:46:14;5.65;;;1.40;;
73100;SDS011;61288;53.446;-2.266;2023-08-24T14:48:39;4.43;;;1.67;;
73100;SDS011;61288;53.446;-2.266;2023-08-24T14:51:05;5.75;;;1.58;;
73100;SDS011;61288;53.446;-2.266;2023-08-24T14:53:31;6.60;;;1.58;;
73100;SDS011;61288;53.446;-2.266;2023-08-24T14:55:57;6.05;;;1.23;;